sensor_id;sensor_type;location;lat;lon;timestamp;P1;durP1;ratioP1;P2;durP2;ratioP2
66761;SDS011;53672;48.176;16.338;2022-10-29T00:02:35;35.28;;;13.73;;
66761;SDS011;53672;48.176;16.338;2022-10-29T00:07:36;37.63;;;14.53;;
66761;SDS011;53672;48.176;16.338;2022-10-29T00:12:38;34.90;;;14.70;;
66761;SDS011;53672;48.176;16.338;2022-10-29T00:17:38;33.85;;;14.20;;
66761;SDS011;53672;48.176;16.338;2022-10-29T00:22:39;36.90;;;14.57;;
66761;SDS011;53672;48.176;16.338;2022-10-29T00:27:41;33.63;;;14.27;;
66761;SDS011;53672;48.176;16.338;2022-10-29T00:32:41;35.42;;;13.80;;
66761;SDS011;53672;48.176;16.338;2022-10-29T00:37:42;36.57;;;13.00;;
66761;SDS011;53672;48.176;16.338;2022-10-29T00:42:43;28.40;;;12.70;;
66761;SDS011;53672;48.176;16.338;2022-10-29T00:47:44;35.55;;;13.57;;
66761;SDS011;53672;48.176;16.338;2022-10-29T00:52:49;38.40;;;13.80;;
66761;SDS011;53672;48.176;16.338;2022-10-29T00:57:54;35.10;;;13.57;;
66761;SDS011;53672;48.176;16.338;2022-10-29T01:02:56;36.20;;;13.57;;
66761;SDS011;53672;48.176;16.338;2022-10-29T01:07:56;40.85;;;14.85;;
66761;SDS011;53672;48.176;16.338;2022-10-29T01:13:07;38.27;;;15.47;;
66761;SDS011;53672;48.176;16.338;2022-10-29T01:18:19;42.33;;;15.70;;
66761;SDS011;53672;48.176;16.338;2022-10-29T01:23:33;35.80;;;14.43;;
66761;SDS011;53672;48.176;16.338;2022-10-29T01:28:57;40.70;;;16.35;;
66761;SDS011;53672;48.176;16.338;2022-10-29T01:34:13;34.03;;;13.20;;
66761;SDS011;53672;48.176;16.338;2022-10-29T01:39:19;31.77;;;12.70;;
66761;SDS011;53672;48.176;16.338;2022-10-29T01:44:28;38.97;;;14.33;;
66761;SDS011;53672;48.176;16.338;2022-10-29T01:49:37;37.25;;;14.38;;
66761;SDS011;53672;48.176;16.338;2022-10-29T01:54:39;36.90;;;14.77;;
66761;SDS011;53672;48.176;16.338;2022-10-29T01:59:40;36.88;;;15.35;;
66761;SDS011;53672;48.176;16.338;2022-10-29T02:04:48;34.50;;;14.13;;
66761;SDS011;53672;48.176;16.338;2022-10-29T02:09:58;33.42;;;13.98;;
66761;SDS011;53672;48.176;16.338;2022-10-29T02:15:06;32.20;;;13.17;;
66761;SDS011;53672;48.176;16.338;2022-10-29T02:20:12;33.47;;;13.77;;
66761;SDS011;53672;48.176;16.338;2022-10-29T02:25:14;33.75;;;13.15;;
66761;SDS011;53672;48.176;16.338;2022-10-29T02:30:14;30.37;;;12.80;;
66761;SDS011;53672;48.176;16.338;2022-10-29T02:35:17;37.55;;;13.52;;
66761;SDS011;53672;48.176;16.338;2022-10-29T02:40:17;36.22;;;13.38;;
66761;SDS011;53672;48.176;16.338;2022-10-29T02:45:18;32.77;;;13.70;;
66761;SDS011;53672;48.176;16.338;2022-10-29T02:50:20;32.33;;;13.07;;
66761;SDS011;53672;48.176;16.338;2022-10-29T02:55:20;34.08;;;13.48;;
66761;SDS011;53672;48.176;16.338;2022-10-29T03:00:21;34.13;;;14.30;;
66761;SDS011;53672;48.176;16.338;2022-10-29T03:05:22;33.50;;;12.83;;
66761;SDS011;53672;48.176;16.338;2022-10-29T03:10:23;34.22;;;13.52;;
66761;SDS011;53672;48.176;16.338;2022-10-29T03:15:23;35.73;;;12.70;;
66761;SDS011;53672;48.176;16.338;2022-10-29T03:20:25;37.03;;;13.43;;
66761;SDS011;53672;48.176;16.338;2022-10-29T03:25:26;35.03;;;13.15;;
66761;SDS011;53672;48.176;16.338;2022-10-29T03:30:26;36.37;;;13.83;;
66761;SDS011;53672;48.176;16.338;2022-10-29T03:35:28;33.73;;;13.10;;
66761;SDS011;53672;48.176;16.338;2022-10-29T03:40:29;31.97;;;12.23;;
66761;SDS011;53672;48.176;16.338;2022-10-29T03:45:29;35.70;;;12.70;;
66761;SDS011;53672;48.176;16.338;2022-10-29T03:50:31;32.92;;;12.55;;
66761;SDS011;53672;48.176;16.338;2022-10-29T03:55:32;31.63;;;11.97;;
66761;SDS011;53672;48.176;16.338;2022-10-29T04:00:32;34.10;;;13.47;;
66761;SDS011;53672;48.176;16.338;2022-10-29T04:05:34;33.90;;;12.57;;
66761;SDS011;53672;48.176;16.338;2022-10-29T04:10:34;31.15;;;11.70;;
66761;SDS011;53672;48.176;16.338;2022-10-29T04:15:35;30.87;;;11.90;;
66761;SDS011;53672;48.176;16.338;2022-10-29T04:20:37;34.63;;;12.10;;
66761;SDS011;53672;48.176;16.338;2022-10-29T04:25:39;32.33;;;12.15;;
66761;SDS011;53672;48.176;16.338;2022-10-29T04:30:39;27.03;;;10.17;;
66761;SDS011;53672;48.176;16.338;2022-10-29T04:35:41;31.40;;;11.17;;
66761;SDS011;53672;48.176;16.338;2022-10-29T04:40:42;34.40;;;12.20;;
66761;SDS011;53672;48.176;16.338;2022-10-29T04:45:42;39.10;;;12.93;;
66761;SDS011;53672;48.176;16.338;2022-10-29T04:50:44;34.57;;;12.97;;
66761;SDS011;53672;48.176;16.338;2022-10-29T04:55:45;32.42;;;11.50;;
66761;SDS011;53672;48.176;16.338;2022-10-29T05:00:46;30.10;;;11.83;;
66761;SDS011;53672;48.176;16.338;2022-10-29T05:05:48;34.80;;;12.00;;
66761;SDS011;53672;48.176;16.338;2022-10-29T05:10:48;31.75;;;12.18;;
66761;SDS011;53672;48.176;16.338;2022-10-29T05:15:49;34.50;;;13.23;;
66761;SDS011;53672;48.176;16.338;2022-10-29T05:20:53;31.67;;;12.00;;
66761;SDS011;53672;48.176;16.338;2022-10-29T05:25:54;34.25;;;12.23;;
66761;SDS011;53672;48.176;16.338;2022-10-29T05:30:55;36.43;;;11.90;;
66761;SDS011;53672;48.176;16.338;2022-10-29T05:35:57;37.77;;;13.53;;
66761;SDS011;53672;48.176;16.338;2022-10-29T05:40:58;35.75;;;12.77;;
66761;SDS011;53672;48.176;16.338;2022-10-29T05:46:00;30.57;;;11.47;;
66761;SDS011;53672;48.176;16.338;2022-10-29T05:51:02;34.10;;;12.40;;
66761;SDS011;53672;48.176;16.338;2022-10-29T05:56:03;33.30;;;12.20;;
66761;SDS011;53672;48.176;16.338;2022-10-29T06:01:05;31.37;;;12.13;;
66761;SDS011;53672;48.176;16.338;2022-10-29T06:06:07;31.67;;;11.95;;
66761;SDS011;53672;48.176;16.338;2022-10-29T06:11:07;27.02;;;10.68;;
66761;SDS011;53672;48.176;16.338;2022-10-29T06:16:08;27.25;;;10.38;;
66761;SDS011;53672;48.176;16.338;2022-10-29T06:21:10;23.70;;;9.07;;
66761;SDS011;53672;48.176;16.338;2022-10-29T06:26:10;25.40;;;10.17;;
66761;SDS011;53672;48.176;16.338;2022-10-29T06:31:11;25.40;;;9.77;;
66761;SDS011;53672;48.176;16.338;2022-10-29T06:36:13;20.23;;;8.87;;
66761;SDS011;53672;48.176;16.338;2022-10-29T06:41:13;19.95;;;8.88;;
66761;SDS011;53672;48.176;16.338;2022-10-29T06:46:14;22.93;;;8.97;;
66761;SDS011;53672;48.176;16.338;2022-10-29T06:51:16;22.63;;;9.33;;
66761;SDS011;53672;48.176;16.338;2022-10-29T06:56:16;22.15;;;9.70;;
66761;SDS011;53672;48.176;16.338;2022-10-29T07:01:16;21.83;;;9.60;;
66761;SDS011;53672;48.176;16.338;2022-10-29T07:06:19;20.23;;;9.43;;
66761;SDS011;53672;48.176;16.338;2022-10-29T07:11:19;23.35;;;10.38;;
66761;SDS011;53672;48.176;16.338;2022-10-29T07:16:20;22.83;;;10.47;;
66761;SDS011;53672;48.176;16.338;2022-10-29T07:21:22;22.13;;;9.63;;
66761;SDS011;53672;48.176;16.338;2022-10-29T07:26:22;21.60;;;9.75;;
66761;SDS011;53672;48.176;16.338;2022-10-29T07:31:23;23.07;;;9.90;;
66761;SDS011;53672;48.176;16.338;2022-10-29T07:36:25;24.67;;;10.60;;
66761;SDS011;53672;48.176;16.338;2022-10-29T07:41:25;22.80;;;9.95;;
66761;SDS011;53672;48.176;16.338;2022-10-29T07:46:26;19.53;;;9.63;;
66761;SDS011;53672;48.176;16.338;2022-10-29T07:51:27;19.40;;;9.10;;
66761;SDS011;53672;48.176;16.338;2022-10-29T07:56:28;19.27;;;9.18;;
66761;SDS011;53672;48.176;16.338;2022-10-29T08:01:28;24.75;;;9.98;;
66761;SDS011;53672;48.176;16.338;2022-10-29T08:06:30;18.27;;;8.87;;
66761;SDS011;53672;48.176;16.338;2022-10-29T08:11:31;17.23;;;8.77;;
66761;SDS011;53672;48.176;16.338;2022-10-29T08:16:31;16.77;;;8.32;;
66761;SDS011;53672;48.176;16.338;2022-10-29T08:21:33;19.50;;;9.17;;
66761;SDS011;53672;48.176;16.338;2022-10-29T08:26:34;16.88;;;8.15;;
66761;SDS011;53672;48.176;16.338;2022-10-29T08:31:34;19.73;;;9.07;;
66761;SDS011;53672;48.176;16.338;2022-10-29T08:36:36;19.60;;;9.90;;
66761;SDS011;53672;48.176;16.338;2022-10-29T08:41:40;19.53;;;9.80;;
66761;SDS011;53672;48.176;16.338;2022-10-29T08:46:53;18.33;;;9.20;;
66761;SDS011;53672;48.176;16.338;2022-10-29T08:52:03;19.52;;;9.57;;
66761;SDS011;53672;48.176;16.338;2022-10-29T08:57:12;18.67;;;10.23;;
66761;SDS011;53672;48.176;16.338;2022-10-29T09:02:14;16.50;;;8.68;;
66761;SDS011;53672;48.176;16.338;2022-10-29T09:07:24;21.83;;;11.50;;
66761;SDS011;53672;48.176;16.338;2022-10-29T09:12:40;21.20;;;11.70;;
66761;SDS011;53672;48.176;16.338;2022-10-29T09:17:53;20.80;;;11.20;;
66761;SDS011;53672;48.176;16.338;2022-10-29T09:23:10;19.17;;;11.53;;
66761;SDS011;53672;48.176;16.338;2022-10-29T09:28:23;21.13;;;11.20;;
66761;SDS011;53672;48.176;16.338;2022-10-29T09:33:31;20.23;;;11.57;;
66761;SDS011;53672;48.176;16.338;2022-10-29T09:38:33;21.10;;;11.57;;
66761;SDS011;53672;48.176;16.338;2022-10-29T09:43:42;19.50;;;11.13;;
66761;SDS011;53672;48.176;16.338;2022-10-29T09:48:50;20.05;;;11.45;;
66761;SDS011;53672;48.176;16.338;2022-10-29T09:54:01;20.20;;;11.67;;
66761;SDS011;53672;48.176;16.338;2022-10-29T09:59:06;19.48;;;11.50;;
66761;SDS011;53672;48.176;16.338;2022-10-29T10:04:18;17.95;;;10.68;;
66761;SDS011;53672;48.176;16.338;2022-10-29T10:09:23;18.90;;;10.00;;
66761;SDS011;53672;48.176;16.338;2022-10-29T10:14:24;16.20;;;9.45;;
66761;SDS011;53672;48.176;16.338;2022-10-29T10:19:25;19.03;;;10.10;;
66761;SDS011;53672;48.176;16.338;2022-10-29T10:24:30;18.15;;;9.40;;
66761;SDS011;53672;48.176;16.338;2022-10-29T10:29:32;17.80;;;9.43;;
66761;SDS011;53672;48.176;16.338;2022-10-29T10:34:35;16.77;;;9.27;;
66761;SDS011;53672;48.176;16.338;2022-10-29T10:39:38;17.58;;;9.85;;
66761;SDS011;53672;48.176;16.338;2022-10-29T10:44:40;19.03;;;9.47;;
66761;SDS011;53672;48.176;16.338;2022-10-29T10:49:46;16.40;;;9.77;;
66761;SDS011;53672;48.176;16.338;2022-10-29T10:54:54;17.20;;;9.80;;
66761;SDS011;53672;48.176;16.338;2022-10-29T10:59:59;17.98;;;9.27;;
66761;SDS011;53672;48.176;16.338;2022-10-29T11:05:08;19.83;;;10.90;;
66761;SDS011;53672;48.176;16.338;2022-10-29T11:10:15;22.33;;;12.43;;
66761;SDS011;53672;48.176;16.338;2022-10-29T11:15:20;21.35;;;11.77;;
66761;SDS011;53672;48.176;16.338;2022-10-29T11:20:33;20.73;;;12.27;;
66761;SDS011;53672;48.176;16.338;2022-10-29T11:25:38;20.75;;;11.40;;
66761;SDS011;53672;48.176;16.338;2022-10-29T11:30:44;21.75;;;11.63;;
66761;SDS011;53672;48.176;16.338;2022-10-29T11:35:52;20.08;;;11.25;;
66761;SDS011;53672;48.176;16.338;2022-10-29T11:41:02;19.73;;;11.55;;
66761;SDS011;53672;48.176;16.338;2022-10-29T11:46:06;24.30;;;12.20;;
66761;SDS011;53672;48.176;16.338;2022-10-29T11:51:21;20.65;;;11.88;;
66761;SDS011;53672;48.176;16.338;2022-10-29T11:56:42;21.75;;;12.40;;
66761;SDS011;53672;48.176;16.338;2022-10-29T12:01:50;21.75;;;12.20;;
66761;SDS011;53672;48.176;16.338;2022-10-29T12:07:09;19.30;;;11.18;;
66761;SDS011;53672;48.176;16.338;2022-10-29T12:12:24;20.30;;;11.80;;
66761;SDS011;53672;48.176;16.338;2022-10-29T12:17:32;19.65;;;11.10;;
66761;SDS011;53672;48.176;16.338;2022-10-29T12:22:42;21.52;;;11.02;;
66761;SDS011;53672;48.176;16.338;2022-10-29T12:27:50;22.23;;;11.45;;
66761;SDS011;53672;48.176;16.338;2022-10-29T12:32:58;21.15;;;10.32;;
66761;SDS011;53672;48.176;16.338;2022-10-29T12:38:09;22.77;;;12.30;;
66761;SDS011;53672;48.176;16.338;2022-10-29T12:43:20;21.15;;;11.73;;
66761;SDS011;53672;48.176;16.338;2022-10-29T12:48:26;23.48;;;11.90;;
66761;SDS011;53672;48.176;16.338;2022-10-29T12:53:38;20.25;;;10.98;;
66761;SDS011;53672;48.176;16.338;2022-10-29T12:58:47;23.20;;;11.60;;
66761;SDS011;53672;48.176;16.338;2022-10-29T13:03:59;21.87;;;11.67;;
66761;SDS011;53672;48.176;16.338;2022-10-29T13:09:08;21.58;;;12.60;;
66761;SDS011;53672;48.176;16.338;2022-10-29T13:14:18;23.70;;;12.50;;
66761;SDS011;53672;48.176;16.338;2022-10-29T13:24:45;21.48;;;11.38;;
66761;SDS011;53672;48.176;16.338;2022-10-29T13:30:28;23.53;;;11.10;;
66761;SDS011;53672;48.176;16.338;2022-10-29T13:35:38;21.10;;;11.27;;
66761;SDS011;53672;48.176;16.338;2022-10-29T13:51:46;19.65;;;10.85;;
66761;SDS011;53672;48.176;16.338;2022-10-29T13:56:51;21.07;;;11.50;;
66761;SDS011;53672;48.176;16.338;2022-10-29T14:01:59;22.77;;;12.55;;
66761;SDS011;53672;48.176;16.338;2022-10-29T14:07:10;23.85;;;12.35;;
66761;SDS011;53672;48.176;16.338;2022-10-29T14:12:16;24.40;;;13.45;;
66761;SDS011;53672;48.176;16.338;2022-10-29T14:17:22;23.88;;;12.65;;
66761;SDS011;53672;48.176;16.338;2022-10-29T14:22:32;27.20;;;13.33;;
66761;SDS011;53672;48.176;16.338;2022-10-29T14:27:35;22.58;;;11.30;;
66761;SDS011;53672;48.176;16.338;2022-10-29T14:32:38;22.97;;;13.13;;
66761;SDS011;53672;48.176;16.338;2022-10-29T14:37:39;22.98;;;11.90;;
66761;SDS011;53672;48.176;16.338;2022-10-29T14:42:42;20.90;;;12.43;;
66761;SDS011;53672;48.176;16.338;2022-10-29T14:47:50;22.23;;;11.85;;
66761;SDS011;53672;48.176;16.338;2022-10-29T14:52:53;24.67;;;13.47;;
66761;SDS011;53672;48.176;16.338;2022-10-29T14:57:59;25.67;;;12.80;;
66761;SDS011;53672;48.176;16.338;2022-10-29T15:03:05;26.77;;;13.10;;
66761;SDS011;53672;48.176;16.338;2022-10-29T15:08:12;28.37;;;14.40;;
66761;SDS011;53672;48.176;16.338;2022-10-29T15:13:21;25.95;;;14.05;;
66761;SDS011;53672;48.176;16.338;2022-10-29T15:18:24;26.00;;;14.07;;
66761;SDS011;53672;48.176;16.338;2022-10-29T15:23:26;28.20;;;14.60;;
66761;SDS011;53672;48.176;16.338;2022-10-29T15:28:28;30.98;;;15.98;;
66761;SDS011;53672;48.176;16.338;2022-10-29T15:33:33;30.27;;;14.53;;
66761;SDS011;53672;48.176;16.338;2022-10-29T15:50:02;31.55;;;14.65;;
66761;SDS011;53672;48.176;16.338;2022-10-29T15:55:05;28.70;;;14.75;;
66761;SDS011;53672;48.176;16.338;2022-10-29T16:00:12;27.57;;;13.30;;
66761;SDS011;53672;48.176;16.338;2022-10-29T16:05:15;30.60;;;14.13;;
66761;SDS011;53672;48.176;16.338;2022-10-29T16:10:17;31.27;;;14.90;;
66761;SDS011;53672;48.176;16.338;2022-10-29T16:15:18;29.17;;;14.45;;
66761;SDS011;53672;48.176;16.338;2022-10-29T16:20:20;28.37;;;14.27;;
66761;SDS011;53672;48.176;16.338;2022-10-29T16:25:22;31.67;;;14.23;;
66761;SDS011;53672;48.176;16.338;2022-10-29T16:30:24;37.50;;;16.13;;
66761;SDS011;53672;48.176;16.338;2022-10-29T16:35:26;37.22;;;16.38;;
66761;SDS011;53672;48.176;16.338;2022-10-29T16:40:27;31.02;;;14.18;;
66761;SDS011;53672;48.176;16.338;2022-10-29T16:45:28;30.13;;;14.00;;
66761;SDS011;53672;48.176;16.338;2022-10-29T16:50:31;28.05;;;13.38;;
66761;SDS011;53672;48.176;16.338;2022-10-29T16:55:34;37.17;;;15.60;;
66761;SDS011;53672;48.176;16.338;2022-10-29T17:00:35;36.20;;;15.27;;
66761;SDS011;53672;48.176;16.338;2022-10-29T17:05:38;38.33;;;14.93;;
66761;SDS011;53672;48.176;16.338;2022-10-29T17:10:40;34.50;;;15.95;;
66761;SDS011;53672;48.176;16.338;2022-10-29T17:15:40;34.77;;;15.70;;
66761;SDS011;53672;48.176;16.338;2022-10-29T17:20:42;35.10;;;15.63;;
66761;SDS011;53672;48.176;16.338;2022-10-29T17:25:53;32.53;;;14.85;;
66761;SDS011;53672;48.176;16.338;2022-10-29T17:30:55;38.65;;;15.43;;
66761;SDS011;53672;48.176;16.338;2022-10-29T17:36:01;38.33;;;15.70;;
66761;SDS011;53672;48.176;16.338;2022-10-29T17:41:02;39.83;;;17.33;;
66761;SDS011;53672;48.176;16.338;2022-10-29T17:46:02;54.10;;;18.60;;
66761;SDS011;53672;48.176;16.338;2022-10-29T17:51:05;65.70;;;19.13;;
66761;SDS011;53672;48.176;16.338;2022-10-29T17:56:05;51.22;;;18.15;;
66761;SDS011;53672;48.176;16.338;2022-10-29T18:01:07;56.33;;;18.80;;
66761;SDS011;53672;48.176;16.338;2022-10-29T18:06:11;65.35;;;19.73;;
66761;SDS011;53672;48.176;16.338;2022-10-29T18:11:13;103.25;;;20.13;;
66761;SDS011;53672;48.176;16.338;2022-10-29T18:16:15;68.95;;;17.48;;
66761;SDS011;53672;48.176;16.338;2022-10-29T18:21:18;91.13;;;19.77;;
66761;SDS011;53672;48.176;16.338;2022-10-29T18:26:21;58.70;;;18.07;;
66761;SDS011;53672;48.176;16.338;2022-10-29T18:31:25;65.90;;;19.65;;
66761;SDS011;53672;48.176;16.338;2022-10-29T18:36:28;65.07;;;19.30;;
66761;SDS011;53672;48.176;16.338;2022-10-29T18:41:28;90.13;;;20.52;;
66761;SDS011;53672;48.176;16.338;2022-10-29T18:46:29;93.37;;;21.97;;
66761;SDS011;53672;48.176;16.338;2022-10-29T18:51:31;58.05;;;19.30;;
66761;SDS011;53672;48.176;16.338;2022-10-29T18:56:32;59.65;;;19.38;;
66761;SDS011;53672;48.176;16.338;2022-10-29T19:01:33;73.63;;;19.60;;
66761;SDS011;53672;48.176;16.338;2022-10-29T19:06:37;50.25;;;17.83;;
66761;SDS011;53672;48.176;16.338;2022-10-29T19:11:38;52.38;;;18.33;;
66761;SDS011;53672;48.176;16.338;2022-10-29T19:16:39;59.08;;;18.65;;
66761;SDS011;53672;48.176;16.338;2022-10-29T19:21:41;71.67;;;18.80;;
66761;SDS011;53672;48.176;16.338;2022-10-29T19:26:41;70.43;;;18.40;;
66761;SDS011;53672;48.176;16.338;2022-10-29T19:31:43;57.10;;;18.77;;
66761;SDS011;53672;48.176;16.338;2022-10-29T19:36:46;57.00;;;18.30;;
66761;SDS011;53672;48.176;16.338;2022-10-29T19:41:47;60.17;;;18.37;;
66761;SDS011;53672;48.176;16.338;2022-10-29T19:46:47;77.20;;;18.27;;
66761;SDS011;53672;48.176;16.338;2022-10-29T19:51:49;65.97;;;18.67;;
66761;SDS011;53672;48.176;16.338;2022-10-29T19:56:52;57.90;;;18.40;;
66761;SDS011;53672;48.176;16.338;2022-10-29T20:01:53;69.97;;;20.30;;
66761;SDS011;53672;48.176;16.338;2022-10-29T20:06:55;86.27;;;20.83;;
66761;SDS011;53672;48.176;16.338;2022-10-29T20:11:56;61.80;;;17.38;;
66761;SDS011;53672;48.176;16.338;2022-10-29T20:16:57;60.17;;;19.07;;
66761;SDS011;53672;48.176;16.338;2022-10-29T20:21:59;59.00;;;19.37;;
66761;SDS011;53672;48.176;16.338;2022-10-29T20:26:59;53.55;;;17.98;;
66761;SDS011;53672;48.176;16.338;2022-10-29T20:32:00;59.83;;;18.23;;
66761;SDS011;53672;48.176;16.338;2022-10-29T20:37:02;46.58;;;16.63;;
66761;SDS011;53672;48.176;16.338;2022-10-29T20:42:03;64.60;;;18.10;;
66761;SDS011;53672;48.176;16.338;2022-10-29T20:47:04;47.30;;;16.55;;
66761;SDS011;53672;48.176;16.338;2022-10-29T20:52:06;48.57;;;15.73;;
66761;SDS011;53672;48.176;16.338;2022-10-29T20:57:07;38.85;;;15.70;;
66761;SDS011;53672;48.176;16.338;2022-10-29T21:02:08;47.80;;;16.10;;
66761;SDS011;53672;48.176;16.338;2022-10-29T21:07:11;40.97;;;15.50;;
66761;SDS011;53672;48.176;16.338;2022-10-29T21:12:11;53.85;;;17.70;;
66761;SDS011;53672;48.176;16.338;2022-10-29T21:17:12;98.90;;;17.73;;
66761;SDS011;53672;48.176;16.338;2022-10-29T21:22:14;85.60;;;17.27;;
66761;SDS011;53672;48.176;16.338;2022-10-29T21:27:14;68.25;;;17.52;;
66761;SDS011;53672;48.176;16.338;2022-10-29T21:32:15;39.60;;;15.07;;
66761;SDS011;53672;48.176;16.338;2022-10-29T21:37:17;41.60;;;15.43;;
66761;SDS011;53672;48.176;16.338;2022-10-29T21:42:17;49.57;;;16.90;;
66761;SDS011;53672;48.176;16.338;2022-10-29T21:47:18;96.50;;;19.73;;
66761;SDS011;53672;48.176;16.338;2022-10-29T21:52:19;55.58;;;15.27;;
66761;SDS011;53672;48.176;16.338;2022-10-29T21:57:20;63.20;;;16.50;;
66761;SDS011;53672;48.176;16.338;2022-10-29T22:02:20;65.77;;;17.30;;
66761;SDS011;53672;48.176;16.338;2022-10-29T22:07:22;55.00;;;15.83;;
66761;SDS011;53672;48.176;16.338;2022-10-29T22:12:23;78.78;;;16.60;;
66761;SDS011;53672;48.176;16.338;2022-10-29T22:17:25;91.43;;;17.20;;
66761;SDS011;53672;48.176;16.338;2022-10-29T22:22:27;53.45;;;17.63;;
66761;SDS011;53672;48.176;16.338;2022-10-29T22:27:28;86.97;;;18.43;;
66761;SDS011;53672;48.176;16.338;2022-10-29T22:32:28;118.33;;;20.67;;
66761;SDS011;53672;48.176;16.338;2022-10-29T22:37:30;103.27;;;17.30;;
66761;SDS011;53672;48.176;16.338;2022-10-29T22:42:31;78.65;;;17.38;;
66761;SDS011;53672;48.176;16.338;2022-10-29T22:47:31;67.47;;;16.93;;
66761;SDS011;53672;48.176;16.338;2022-10-29T22:52:33;74.47;;;16.20;;
66761;SDS011;53672;48.176;16.338;2022-10-29T22:57:33;52.55;;;15.13;;
66761;SDS011;53672;48.176;16.338;2022-10-29T23:02:34;43.57;;;14.97;;
66761;SDS011;53672;48.176;16.338;2022-10-29T23:07:36;100.23;;;17.97;;
66761;SDS011;53672;48.176;16.338;2022-10-29T23:12:36;46.30;;;14.50;;
66761;SDS011;53672;48.176;16.338;2022-10-29T23:17:37;81.53;;;16.10;;
66761;SDS011;53672;48.176;16.338;2022-10-29T23:22:38;80.60;;;16.13;;
66761;SDS011;53672;48.176;16.338;2022-10-29T23:27:39;46.83;;;14.70;;
66761;SDS011;53672;48.176;16.338;2022-10-29T23:32:39;44.22;;;14.55;;
66761;SDS011;53672;48.176;16.338;2022-10-29T23:37:41;58.67;;;14.00;;
66761;SDS011;53672;48.176;16.338;2022-10-29T23:42:42;61.47;;;15.53;;
66761;SDS011;53672;48.176;16.338;2022-10-29T23:47:42;42.40;;;14.67;;
66761;SDS011;53672;48.176;16.338;2022-10-29T23:52:44;57.20;;;15.83;;
66761;SDS011;53672;48.176;16.338;2022-10-29T23:57:44;55.38;;;14.77;;
